Time;durP1;ratioP1;P1;durP2;ratioP2;P2;SDS_P1;SDS_P2;PMS_P1;PMS_P2;Temp;Humidity;BMP_temperature;BMP_pressure;BME280_temperature;BME280_humidity;BME280_pressure;Samples;Min_cycle;Max_cycle;Signal;HPM_P1;HPM_P2
2022/08/03 00:04:04;;;;;;;6.57;2.92;;;20.70;64.70;;;;;;5053528;22;20049;-67
2022/08/03 00:06:30;;;;;;;2.70;2.50;;;20.70;65.10;;;;;;5033948;28;20394;-69
2022/08/03 00:08:55;;;;;;;5.40;2.90;;;20.60;65.40;;;;;;5032926;28;20026;-69
2022/08/03 00:11:22;;;;;;;5.35;3.38;;;;;;;;;;5032496;28;20057;-68
2022/08/03 00:13:48;;;;;;;7.38;2.50;;;;;;;;;;5033819;28;20017;-68
2022/08/03 00:16:14;;;;;;;4.55;2.80;;;;;;;;;;5033728;28;20022;-68
2022/08/03 00:18:40;;;;;;;3.70;2.97;;;;;;;;;;5032906;28;20025;-67
2022/08/03 00:21:06;;;;;;;6.97;2.85;;;;;;;;;;5033453;28;20040;-68
2022/08/03 00:23:32;;;;;;;4.53;2.97;;;;;;;;;;5033374;28;20029;-68
2022/08/03 00:25:58;;;;;;;3.80;3.03;;;20.20;66.90;;;;;;5033913;28;20452;-68
2022/08/03 00:28:23;;;;;;;3.15;2.85;;;20.10;67.30;;;;;;5032756;28;20064;-68
2022/08/03 00:30:49;;;;;;;2.92;2.70;;;20.10;67.30;;;;;;5033375;28;20096;-66
2022/08/03 00:33:15;;;;;;;3.63;3.13;;;20.00;67.40;;;;;;5033446;28;20100;-69
2022/08/03 00:35:41;;;;;;;7.00;3.40;;;20.00;67.70;;;;;;5033352;28;20033;-68
2022/08/03 00:38:07;;;;;;;3.10;2.80;;;20.00;67.90;;;;;;5032666;28;20029;-68
2022/08/03 00:40:33;;;;;;;3.75;2.97;;;20.00;67.90;;;;;;5032713;28;20071;-68
2022/08/03 00:43:01;;;;;;;6.00;3.00;;;19.90;68.10;;;;;;5033193;28;20090;-68
2022/08/03 00:45:32;;;;;;;5.47;2.80;;;19.90;68.40;;;;;;5033125;28;20391;-69
2022/08/03 00:47:58;;;;;;;7.38;2.75;;;20.00;68.20;;;;;;5032577;28;20109;-69
2022/08/03 00:50:27;;;;;;;3.78;3.40;;;19.90;68.20;;;;;;5015629;28;20437;-69
2022/08/03 00:52:55;;;;;;;3.40;3.10;;;19.80;68.50;;;;;;5033454;28;20048;-69
2022/08/03 00:55:21;;;;;;;3.22;2.90;;;19.70;68.70;;;;;;5033649;28;20101;-67
2022/08/03 00:57:47;;;;;;;8.93;3.10;;;19.70;68.70;;;;;;5032215;28;20040;-69
2022/08/03 01:00:16;;;;;;;5.47;2.58;;;19.60;68.70;;;;;;5032682;28;20025;-68
2022/08/03 01:02:42;;;;;;;4.07;3.38;;;19.60;69.00;;;;;;5032731;28;20151;-68
2022/08/03 01:05:09;;;;;;;3.20;2.90;;;19.60;69.10;;;;;;5032833;28;20056;-69
2022/08/03 01:07:47;;;;;;;4.20;3.15;;;19.50;69.20;;;;;;5032290;28;20190;-68
2022/08/03 01:10:16;;;;;;;4.28;3.33;;;19.50;69.10;;;;;;5032718;28;20021;-68
2022/08/03 01:12:54;;;;;;;3.20;3.00;;;19.50;69.20;;;;;;5032423;28;20502;-69
2022/08/03 01:15:28;;;;;;;3.45;2.88;;;19.50;69.40;;;;;;5032906;28;20033;-69
2022/08/03 01:18:00;;;;;;;6.65;3.40;;;19.50;69.50;;;;;;5031743;28;20032;-69
2022/08/03 01:20:32;;;;;;;5.18;3.55;;;19.50;69.60;;;;;;5032469;28;20049;-69
2022/08/03 01:22:58;;;;;;;5.35;3.45;;;19.50;69.50;;;;;;5032344;28;20021;-68
2022/08/03 01:25:35;;;;;;;3.50;3.20;;;19.50;69.60;;;;;;5014839;28;20036;-70
2022/08/03 01:28:37;;;;;;;3.63;2.88;;;19.40;69.80;;;;;;5031647;28;20546;-69
2022/08/03 01:31:07;;;;;;;3.55;3.25;;;;;;;;;;5032492;28;20109;-69
2022/08/03 01:33:38;;;;;;;4.57;3.47;;;;;;;;;;5032134;28;20017;-69
2022/08/03 01:36:06;;;;;;;4.43;3.40;;;;;;;;;;5032151;28;20702;-69
2022/08/03 01:38:34;;;;;;;5.68;3.63;;;;;;;;;;5031491;28;20036;-69
2022/08/03 01:41:05;;;;;;;3.75;3.38;;;;;;;;;;5032006;28;20545;-68
2022/08/03 01:43:31;;;;;;;5.50;3.73;;;;;;;;;;5031995;28;20550;-68
2022/08/03 01:45:57;;;;;;;4.78;3.38;;;;;;;;;;5031708;28;20108;-68
2022/08/03 01:48:24;;;;;;;6.75;3.20;;;;;;;;;;5031236;28;20032;-69
2022/08/03 01:50:50;;;;;;;5.38;3.03;;;;;;;;;;5032131;28;20033;-68
2022/08/03 01:53:17;;;;;;;3.90;3.50;;;;;;;;;;5031636;28;20482;-67
2022/08/03 01:55:48;;;;;;;5.22;3.50;;;;;;;;;;5032208;28;20545;-68
2022/08/03 01:58:16;;;;;;;6.88;3.78;;;;;;;;;;5031369;28;20041;-69
2022/08/03 02:00:42;;;;;;;4.97;3.67;;;;;;;;;;5031364;28;20034;-67
2022/08/03 02:03:09;;;;;;;6.07;3.65;;;;;;;;;;5029092;28;20037;-69
2022/08/03 02:05:35;;;;;;;6.57;3.85;;;;;;;;;;5049333;28;20025;-68
2022/08/03 02:08:03;;;;;;;4.20;3.70;;;;;;;;;;5031119;28;20029;-68
2022/08/03 02:10:29;;;;;;;4.30;3.25;;;;;;;;;;5032063;28;20025;-69
2022/08/03 02:12:56;;;;;;;3.78;3.28;;;;;;;;;;5031569;28;20040;-69
2022/08/03 02:15:23;;;;;;;4.85;3.60;;;;;;;;;;5031439;28;20101;-68
2022/08/03 02:17:49;;;;;;;4.85;3.58;;;;;;;;;;5030825;28;20030;-68
2022/08/03 02:20:16;;;;;;;3.88;3.47;;;;;;;;;;5031608;28;20456;-68
2022/08/03 02:22:43;;;;;;;4.97;3.92;;;;;;;;;;5031678;28;20033;-69
2022/08/03 02:25:10;;;;;;;3.63;3.30;;;;;;;;;;5031405;28;20028;-69
2022/08/03 02:27:39;;;;;;;4.60;3.53;;;;;;;;;;5030744;28;20025;-68
2022/08/03 02:30:07;;;;;;;5.28;3.78;;;;;;;;;;5031362;28;20479;-68
2022/08/03 02:32:36;;;;;;;7.13;3.55;;;18.70;72.20;;;;;;5031297;28;20487;-68
2022/08/03 02:35:04;;;;;;;7.57;4.50;;;18.70;72.40;;;;;;5031401;28;20042;-67
2022/08/03 02:37:34;;;;;;;5.78;3.47;;;18.60;72.50;;;;;;5030496;28;20487;-68
2022/08/03 02:40:05;;;;;;;4.63;3.85;;;;;;;;;;5031388;28;20030;-68
2022/08/03 02:42:32;;;;;;;4.53;3.55;;;;;;;;;;5031179;28;20033;-67
2022/08/03 02:44:59;;;;;;;4.55;3.75;;;;;;;;;;5031302;28;20464;-68
2022/08/03 02:47:27;;;;;;;3.63;3.33;;;;;;;;;;5030473;28;20017;-69
2022/08/03 02:49:55;;;;;;;5.70;3.97;;;;;;;;;;5031281;28;20032;-68
2022/08/03 02:52:22;;;;;;;9.20;3.83;;;;;;;;;;5031266;28;20032;-68
2022/08/03 02:54:50;;;;;;;5.32;4.00;;;;;;;;;;5031001;28;20030;-69
2022/08/03 02:57:18;;;;;;;5.53;3.55;;;18.40;73.70;;;;;;5030430;28;20044;-68
2022/08/03 02:59:44;;;;;;;4.25;3.85;;;18.40;74.00;;;;;;5031024;28;20513;-69
2022/08/03 03:02:11;;;;;;;4.88;4.07;;;18.30;74.20;;;;;;5030946;28;20049;-67
2022/08/03 03:04:37;;;;;;;4.75;3.80;;;18.40;74.10;;;;;;5035027;28;20037;-68
2022/08/03 03:07:03;;;;;;;5.30;3.28;;;18.30;74.20;;;;;;5034389;28;20028;-66
2022/08/03 03:09:30;;;;;;;345.60;194.07;;;18.30;74.40;;;;;;5034364;28;20026;-68
2022/08/03 03:11:56;;;;;;;137.45;71.80;;;18.30;74.30;;;;;;5036182;28;20104;-67
2022/08/03 03:14:23;;;;;;;52.70;25.90;;;18.30;74.50;;;;;;5054738;28;20102;-68
2022/08/03 03:16:50;;;;;;;263.50;132.57;;;18.30;74.50;;;;;;5045930;28;20037;-68
2022/08/03 03:19:18;;;;;;;64.47;30.40;;;18.20;74.60;;;;;;5034029;28;20470;-68
2022/08/03 03:21:44;;;;;;;33.55;16.85;;;18.20;74.60;;;;;;5034440;28;20109;-68
2022/08/03 03:24:10;;;;;;;17.05;7.38;;;18.20;74.80;;;;;;5034603;28;20545;-67
2022/08/03 03:26:37;;;;;;;4.40;3.80;;;18.30;74.60;;;;;;5034528;28;20087;-68
2022/08/03 03:29:03;;;;;;;5.45;3.97;;;18.30;74.20;;;;;;5033828;28;20571;-68
2022/08/03 03:31:28;;;;;;;4.43;3.67;;;18.40;74.20;;;;;;5034434;28;20052;-68
2022/08/03 03:33:57;;;;;;;4.22;3.83;;;18.30;74.40;;;;;;5034399;28;20515;-68
2022/08/03 03:36:23;;;;;;;4.03;3.63;;;18.30;74.40;;;;;;5034154;28;20076;-67
2022/08/03 03:38:49;;;;;;;4.00;3.65;;;18.40;74.30;;;;;;5033672;28;20475;-68
2022/08/03 03:41:14;;;;;;;7.28;4.25;;;18.40;74.00;;;;;;5034261;28;20032;-67
2022/08/03 03:43:40;;;;;;;4.38;3.97;;;18.40;74.10;;;;;;5034332;28;20511;-67
2022/08/03 03:46:06;;;;;;;4.75;3.67;;;18.40;74.20;;;;;;5034148;28;20022;-67
2022/08/03 03:48:32;;;;;;;4.65;3.60;;;18.30;74.30;;;;;;5033446;28;20537;-67
2022/08/03 03:50:58;;;;;;;4.07;3.65;;;18.30;74.50;;;;;;5033809;28;20426;-67
2022/08/03 03:53:24;;;;;;;6.85;4.03;;;18.30;74.50;;;;;;5033848;28;20028;-68
2022/08/03 03:55:52;;;;;;;5.82;3.60;;;18.40;74.20;;;;;;5034090;28;20068;-68
2022/08/03 03:58:19;;;;;;;5.22;3.60;;;18.50;74.10;;;;;;5033351;28;20026;-68
2022/08/03 04:00:45;;;;;;;5.35;3.42;;;18.50;73.90;;;;;;5034018;28;20032;-67
2022/08/03 04:03:11;;;;;;;5.47;3.92;;;18.50;73.90;;;;;;5033938;28;20041;-68
2022/08/03 04:11:15;;;;;;;3.75;3.33;;;19.50;71.70;;;;;;5033882;28;20033;-68
2022/08/03 04:13:57;;;;;;;3.92;3.25;;;;;;;;;;5033792;28;20018;-68
2022/08/03 04:16:25;;;;;;;3.33;2.72;;;;;;;;;;5032895;28;20028;-69
2022/08/03 04:18:53;;;;;;;4.35;2.92;;;;;;;;;;5033057;28;20080;-69
2022/08/03 04:21:22;;;;;;;3.17;2.75;;;;;;;;;;5034050;28;20029;-68
2022/08/03 04:23:49;;;;;;;5.47;3.60;;;;;;;;;;5033701;28;20045;-69
2022/08/03 04:26:18;;;;;;;3.40;3.10;;;;;;;;;;5033516;28;20037;-68
2022/08/03 04:28:46;;;;;;;5.05;3.25;;;;;;;;;;5032582;28;20021;-68
2022/08/03 04:31:13;;;;;;;7.00;3.00;;;23.60;57.60;;;;;;5015396;28;20037;-67
2022/08/03 04:33:39;;;;;;;5.60;2.90;;;;;;;;;;5033388;28;20488;-68
2022/08/03 04:36:08;;;;;;;4.68;3.00;;;;;;;;;;5033343;28;20025;-68
2022/08/03 04:39:03;;;;;;;4.25;2.67;;;26.80;48.80;;;;;;5032608;28;20025;-67
2022/08/03 04:41:30;;;;;;;2.55;2.22;;;28.00;45.00;;;;;;5033311;28;20512;-68
2022/08/03 04:43:59;;;;;;;3.40;2.50;;;29.20;42.90;;;;;;5034607;28;20029;-68
2022/08/03 04:46:28;;;;;;;2.17;2.00;;;30.00;41.00;;;;;;5033663;28;20024;-68
2022/08/03 04:48:55;;;;;;;3.45;2.00;;;30.20;40.50;;;;;;5032435;28;20044;-68
2022/08/03 04:51:21;;;;;;;5.68;2.58;;;31.10;38.50;;;;;;5033029;28;20391;-69
2022/08/03 04:53:46;;;;;;;2.70;2.40;;;31.30;37.30;;;;;;5032952;28;20021;-70
2022/08/03 04:56:12;;;;;;;3.80;2.40;;;31.30;37.30;;;;;;5033127;28;20022;-68
2022/08/03 04:58:38;;;;;;;5.20;2.33;;;31.80;37.30;;;;;;5032035;28;20037;-69
2022/08/03 05:01:03;;;;;;;9.20;3.17;;;31.30;36.70;;;;;;5033110;28;20030;-68
2022/08/03 05:03:30;;;;;;;5.20;2.60;;;30.80;38.10;;;;;;5032754;28;20091;-68
2022/08/03 05:05:56;;;;;;;3.20;2.03;;;31.20;37.20;;;;;;5032832;28;20077;-69
2022/08/03 05:08:22;;;;;;;3.20;2.45;;;31.50;37.10;;;;;;5031595;28;20033;-68
2022/08/03 05:10:47;;;;;;;3.25;2.65;;;31.50;36.40;;;;;;5032745;28;20026;-68
2022/08/03 05:13:13;;;;;;;6.28;2.08;;;;;;;;;;5032733;28;20030;-68
2022/08/03 05:15:40;;;;;;;9.55;2.70;;;33.10;34.20;;;;;;5032283;28;20105;-69
2022/08/03 05:18:06;;;;;;;3.00;2.33;;;33.80;33.00;;;;;;5031838;28;20030;-69
2022/08/03 05:20:31;;;;;;;3.22;2.10;;;33.80;32.90;;;;;;5032305;28;20029;-69
2022/08/03 05:23:00;;;;;;;12.80;2.80;;;;;;;;;;5031735;28;20079;-69
2022/08/03 05:25:26;;;;;;;6.13;2.97;;;35.30;30.70;;;;;;5048994;28;20025;-68
2022/08/03 05:27:51;;;;;;;4.35;2.50;;;34.90;30.70;;;;;;5030518;28;20025;-70
2022/08/03 05:30:17;;;;;;;4.95;2.80;;;35.00;30.60;;;;;;5032111;28;20461;-69
2022/08/03 05:32:43;;;;;;;6.85;2.70;;;34.80;31.10;;;;;;5032324;28;20017;-68
2022/08/03 05:35:08;;;;;;;5.32;2.45;;;33.70;32.60;;;;;;5032095;28;20091;-68
2022/08/03 05:37:34;;;;;;;6.07;2.78;;;33.60;33.00;;;;;;5031505;28;20483;-69
2022/08/03 05:39:59;;;;;;;4.88;2.20;;;34.60;31.80;;;;;;5031886;28;20032;-69
2022/08/03 05:42:25;;;;;;;6.93;2.17;;;35.50;30.50;;;;;;5031885;28;20026;-68
2022/08/03 05:44:50;;;;;;;6.80;2.70;;;35.90;29.70;;;;;;5032054;28;20029;-68
2022/08/03 05:47:16;;;;;;;5.45;2.30;;;34.70;31.00;;;;;;5031276;28;20079;-67
2022/08/03 05:49:42;;;;;;;6.88;2.55;;;34.20;32.10;;;;;;5031709;28;20060;-68
2022/08/03 05:52:07;;;;;;;4.93;2.28;;;35.30;30.90;;;;;;5031820;28;20052;-67
2022/08/03 05:54:33;;;;;;;6.18;2.30;;;36.00;29.10;;;;;;5031651;28;20480;-69
2022/08/03 05:56:58;;;;;;;3.08;2.08;;;35.20;30.20;;;;;;5030930;28;20021;-69
2022/08/03 05:59:24;;;;;;;10.40;2.70;;;34.70;31.50;;;;;;5031111;28;20108;-68
2022/08/03 06:01:51;;;;;;;6.57;2.03;;;36.20;29.60;;;;;;5046960;28;20021;-70
2022/08/03 06:04:17;;;;;;;3.78;1.92;;;36.50;28.70;;;;;;5021788;22;20054;-67
2022/08/03 06:06:42;;;;;;;4.57;2.13;;;37.40;28.20;;;;;;4992645;28;20038;-64
2022/08/03 06:09:12;;;;;;;4.18;1.95;;;37.60;27.30;;;;;;4991990;28;20068;-65
2022/08/03 06:11:39;;;;;;;4.97;2.03;;;36.60;28.40;;;;;;4990990;28;20515;-65
2022/08/03 06:14:05;;;;;;;12.20;2.55;;;36.50;29.00;;;;;;4992367;28;20504;-65
2022/08/03 06:16:31;;;;;;;6.80;2.38;;;37.00;28.10;;;;;;4992367;28;20062;-66
2022/08/03 06:18:56;;;;;;;4.30;2.17;;;37.30;27.40;;;;;;4991495;28;20058;-71
2022/08/03 06:21:22;;;;;;;7.32;2.42;;;35.50;29.70;;;;;;4992383;28;20030;-71
2022/08/03 06:23:47;;;;;;;7.57;2.70;;;34.60;31.20;;;;;;4992627;28;20026;-71
2022/08/03 06:26:13;;;;;;;6.25;2.83;;;34.90;31.20;;;;;;4992141;28;20030;-71
2022/08/03 06:28:39;;;;;;;4.78;2.53;;;34.40;31.30;;;;;;4991820;28;20022;-72
2022/08/03 06:31:05;;;;;;;5.35;2.25;;;34.20;32.20;;;;;;4992203;28;20026;-70
2022/08/03 06:33:31;;;;;;;6.43;2.50;;;;;;;;;;4990862;28;20026;-71
2022/08/03 06:35:56;;;;;;;5.20;2.55;;;36.30;29.20;;;;;;4992279;28;20030;-71
2022/08/03 06:38:22;;;;;;;3.72;2.08;;;35.90;29.70;;;;;;4992880;28;20033;-71
2022/08/03 06:40:47;;;;;;;6.18;2.60;;;37.10;28.30;;;;;;4996294;28;20034;-71
2022/08/03 06:43:14;;;;;;;5.63;2.17;;;;;;;;;;4995913;28;20081;-71
2022/08/03 06:45:40;;;;;;;6.60;2.45;;;38.60;26.50;;;;;;4995708;28;20030;-71
2022/08/03 06:48:08;;;;;;;10.73;2.72;;;38.50;26.30;;;;;;4995090;28;20088;-70
2022/08/03 06:50:35;;;;;;;9.82;2.78;;;37.80;27.40;;;;;;4995811;28;20030;-71
2022/08/03 06:53:02;;;;;;;6.70;2.50;;;38.30;26.70;;;;;;4995453;28;20027;-70
2022/08/03 06:55:28;;;;;;;10.20;2.53;;;37.60;27.20;;;;;;4994156;28;20030;-71
2022/08/03 06:57:53;;;;;;;4.10;2.42;;;38.00;27.10;;;;;;4994808;28;20030;-70
2022/08/03 07:00:19;;;;;;;4.25;2.38;;;37.90;27.00;;;;;;4995553;28;20038;-71
2022/08/03 07:02:45;;;;;;;4.18;2.35;;;;;;;;;;4995399;28;20049;-70
2022/08/03 07:05:12;;;;;;;6.70;2.70;;;;;;;;;;4995845;28;20035;-71
2022/08/03 07:07:38;;;;;;;6.68;2.70;;;;;;;;;;4995033;28;20040;-70
2022/08/03 07:10:05;;;;;;;11.77;2.40;;;36.70;28.80;;;;;;4994153;28;20026;-72
2022/08/03 07:12:31;;;;;;;9.95;2.75;;;37.50;27.60;;;;;;4995362;28;20028;-70
2022/08/03 07:14:58;;;;;;;8.70;3.00;;;37.40;27.70;;;;;;4993860;28;20037;-71
2022/08/03 07:17:24;;;;;;;4.85;2.35;;;37.10;27.70;;;;;;4994366;28;20031;-72
2022/08/03 07:19:50;;;;;;;5.80;2.72;;;35.90;29.70;;;;;;4995247;28;20033;-71
2022/08/03 07:22:16;;;;;;;2.65;2.38;;;;;;;;;;4995282;28;20026;-71
2022/08/03 07:24:42;;;;;;;7.07;2.70;;;;;;;;;;4994964;28;20081;-71
2022/08/03 07:27:08;;;;;;;4.90;2.17;;;;;;;;;;4997211;28;20118;-71
2022/08/03 07:29:34;;;;;;;7.32;2.58;;;36.40;28.10;;;;;;5014444;28;20029;-72
2022/08/03 07:32:01;;;;;;;7.35;3.25;;;35.60;28.90;;;;;;5014860;28;20060;-71
2022/08/03 07:34:26;;;;;;;6.30;2.47;;;34.50;31.10;;;;;;5014506;28;20113;-71
2022/08/03 07:36:52;;;;;;;5.25;2.50;;;;;;;;;;5014444;28;20061;-72
2022/08/03 07:39:18;;;;;;;4.32;2.70;;;;;;;;;;5013718;28;20472;-71
2022/08/03 07:41:45;;;;;;;3.97;2.20;;;;;;;;;;5014486;28;20076;-72
2022/08/03 07:44:11;;;;;;;7.72;2.65;;;;;;;;;;5014674;28;20029;-71
2022/08/03 07:46:37;;;;;;;5.68;3.00;;;;;;;;;;5013932;28;20084;-71
2022/08/03 07:49:03;;;;;;;8.93;3.03;;;;;;;;;;5013115;28;20058;-73
2022/08/03 07:51:29;;;;;;;9.75;2.95;;;;;;;;;;5013662;28;20033;-71
2022/08/03 07:53:56;;;;;;;3.38;2.58;;;;;;;;;;5014177;28;20075;-71
2022/08/03 07:56:23;;;;;;;4.43;1.90;;;;;;;;;;5014138;28;20022;-71
2022/08/03 07:58:50;;;;;;;7.40;2.72;;;;;;;;;;5012934;28;20026;-71
2022/08/03 08:01:15;;;;;;;8.48;2.35;;;39.40;24.90;;;;;;5013857;28;20481;-72
2022/08/03 08:03:41;;;;;;;3.53;2.60;;;39.70;24.40;;;;;;5013814;28;20116;-71
2022/08/03 08:06:07;;;;;;;4.20;2.30;;;37.40;27.10;;;;;;4993089;28;20026;-71
2022/08/03 08:08:33;;;;;;;6.65;2.65;;;37.60;27.30;;;;;;4993772;28;20046;-72
2022/08/03 08:10:58;;;;;;;5.60;2.83;;;38.50;26.60;;;;;;4992946;28;20022;-71
2022/08/03 08:13:24;;;;;;;4.57;2.28;;;38.80;25.60;;;;;;4994259;28;20113;-72
2022/08/03 08:15:49;;;;;;;10.00;2.33;;;38.00;26.30;;;;;;4994379;28;20038;-72
2022/08/03 08:18:15;;;;;;;6.25;2.50;;;36.90;27.70;;;;;;4992218;28;20105;-72
2022/08/03 08:20:41;;;;;;;2.35;1.98;;;37.00;28.50;;;;;;4992778;28;20428;-72
2022/08/03 08:23:07;;;;;;;6.38;2.40;;;37.80;27.10;;;;;;4992881;28;20027;-72
2022/08/03 08:25:33;;;;;;;6.22;2.53;;;36.60;28.30;;;;;;4993901;28;20440;-71
2022/08/03 08:28:01;;;;;;;3.00;2.25;;;37.30;27.60;;;;;;4993615;28;20023;-71
2022/08/03 08:30:27;;;;;;;1.98;1.75;;;38.00;26.90;;;;;;4993976;28;20560;-70
2022/08/03 08:32:52;;;;;;;9.85;2.17;;;37.60;27.20;;;;;;4993989;28;20066;-70
2022/08/03 08:35:18;;;;;;;3.70;2.40;;;38.50;26.20;;;;;;4994111;28;20038;-71
2022/08/03 08:37:44;;;;;;;4.55;2.22;;;37.70;27.00;;;;;;4992802;28;20099;-71
2022/08/03 08:40:12;;;;;;;4.63;1.85;;;36.90;27.90;;;;;;4993387;28;20527;-71
2022/08/03 08:42:38;;;;;;;3.70;1.88;;;37.10;27.90;;;;;;4993367;28;20105;-69
2022/08/03 08:45:05;;;;;;;6.90;1.85;;;38.30;27.10;;;;;;4993609;28;20037;-71
2022/08/03 08:47:33;;;;;;;3.85;1.85;;;39.00;25.70;;;;;;4992766;28;20069;-70
2022/08/03 08:50:00;;;;;;;4.40;1.98;;;39.90;24.90;;;;;;4993800;28;20029;-70
2022/08/03 08:52:27;;;;;;;6.88;1.92;;;40.80;24.00;;;;;;4993562;28;20109;-70
2022/08/03 08:54:59;;;;;;;6.88;1.95;;;41.40;23.10;;;;;;4992494;28;20029;-71
2022/08/03 08:57:29;;;;;;;5.70;2.38;;;41.50;23.00;;;;;;4992737;28;20445;-75
2022/08/03 08:59:56;;;;;;;4.13;2.17;;;;;;;;;;4993454;28;20029;-73
2022/08/03 09:02:29;;;;;;;6.10;1.85;;;40.00;24.00;;;;;;4992713;28;20061;-74
2022/08/03 09:04:55;;;;;;;4.75;2.38;;;38.30;25.80;;;;;;4993324;28;20041;-75
2022/08/03 09:07:21;;;;;;;3.58;1.88;;;37.80;26.30;;;;;;4994591;28;20033;-75
2022/08/03 09:09:47;;;;;;;2.83;1.77;;;36.30;28.10;;;;;;4992984;28;20380;-72
2022/08/03 09:12:13;;;;;;;3.53;1.92;;;36.70;28.40;;;;;;4993845;28;20025;-72
2022/08/03 09:14:39;;;;;;;6.88;2.00;;;37.80;26.70;;;;;;4992459;28;20022;-74
2022/08/03 09:17:05;;;;;;;5.35;2.10;;;37.90;26.70;;;;;;4993716;28;20030;-73
2022/08/03 09:19:33;;;;;;;3.35;1.63;;;37.70;26.80;;;;;;4993541;28;20041;-73
2022/08/03 09:22:12;;;;;;;6.00;1.85;;;37.70;27.00;;;;;;4992382;28;20053;-73
2022/08/03 09:24:55;;;;;;;2.40;1.85;;;38.40;26.30;;;;;;4993509;28;20084;-68
2022/08/03 09:27:21;;;;;;;7.43;1.92;;;38.20;25.80;;;;;;4993137;28;20027;-68
2022/08/03 09:29:51;;;;;;;3.13;1.73;;;38.00;26.00;;;;;;5009692;28;20030;-68
2022/08/03 09:32:22;;;;;;;3.63;1.75;;;38.20;25.90;;;;;;5010953;28;20038;-68
2022/08/03 09:34:49;;;;;;;3.08;2.88;;;36.40;27.50;;;;;;5012922;28;20026;-75
2022/08/03 09:37:17;;;;;;;3.22;1.90;;;36.30;28.30;;;;;;5012716;28;20018;-73
2022/08/03 09:39:44;;;;;;;2.13;1.80;;;35.90;28.20;;;;;;5011461;28;20156;-70
2022/08/03 09:42:18;;;;;;;6.35;5.72;;;35.70;28.50;;;;;;5012353;28;20030;-73
2022/08/03 09:44:51;;;;;;;5.90;4.78;;;36.50;28.40;;;;;;5003978;28;20026;-72
2022/08/03 09:47:29;;;;;;;9.75;2.17;;;37.00;27.90;;;;;;4994394;28;20030;-70
2022/08/03 09:50:08;;;;;;;5.57;1.65;;;36.50;27.40;;;;;;4993821;28;20023;-72
2022/08/03 09:52:38;;;;;;;7.65;3.20;;;35.60;28.50;;;;;;4994122;28;20408;-72
2022/08/03 09:55:12;;;;;;;7.93;5.03;;;35.90;29.00;;;;;;4991973;28;20069;-73
2022/08/03 09:57:45;;;;;;;5.15;3.13;;;36.50;28.50;;;;;;4991476;28;20494;-73
2022/08/03 10:00:13;;;;;;;7.50;5.18;;;36.90;28.00;;;;;;4992305;28;20515;-72
2022/08/03 10:02:41;;;;;;;5.13;3.20;;;37.30;27.50;;;;;;4991250;28;20038;-72
2022/08/03 10:05:09;;;;;;;8.77;4.78;;;36.80;27.50;;;;;;4988991;28;20539;-72
2022/08/03 10:07:46;;;;;;;8.82;4.60;;;36.60;28.20;;;;;;4989145;28;20030;-67
2022/08/03 10:10:12;;;;;;;2.95;2.47;;;36.90;28.00;;;;;;4991620;28;20049;-68
2022/08/03 10:12:40;;;;;;;3.63;1.88;;;37.30;27.20;;;;;;4990760;28;20056;-67
2022/08/03 10:15:06;;;;;;;6.82;2.92;;;36.90;26.50;;;;;;4991956;28;20054;-66
2022/08/03 10:17:32;;;;;;;6.88;2.35;;;35.90;27.90;;;;;;4991262;28;20034;-67
2022/08/03 10:19:59;;;;;;;4.68;2.33;;;35.50;28.60;;;;;;4992074;28;20034;-67
2022/08/03 10:22:32;;;;;;;8.02;2.25;;;35.80;28.70;;;;;;4991800;28;20044;-67
2022/08/03 10:25:11;;;;;;;6.65;3.05;;;35.10;30.00;;;;;;4991660;28;20570;-67
2022/08/03 10:27:40;;;;;;;6.22;3.15;;;35.00;29.90;;;;;;4991219;28;20026;-66
2022/08/03 10:30:08;;;;;;;6.20;3.00;;;35.10;30.50;;;;;;4991903;28;20515;-67
2022/08/03 10:32:41;;;;;;;5.15;2.70;;;35.20;30.10;;;;;;4991767;28;20033;-68
2022/08/03 10:35:12;;;;;;;4.00;1.77;;;35.40;30.10;;;;;;4991905;28;20058;-67
2022/08/03 10:38:00;;;;;;;7.32;2.15;;;35.40;29.90;;;;;;4989140;28;20369;-68
2022/08/03 10:40:29;;;;;;;3.55;1.85;;;35.40;29.70;;;;;;4991345;28;20033;-66
2022/08/03 10:43:02;;;;;;;7.45;2.10;;;34.80;30.40;;;;;;4991505;28;20026;-67
2022/08/03 10:45:28;;;;;;;3.95;2.13;;;;;;;;;;4991779;28;20395;-68
2022/08/03 10:47:55;;;;;;;4.03;2.10;;;;;;;;;;4989566;28;20026;-67
2022/08/03 10:50:24;;;;;;;6.95;2.50;;;33.90;31.00;;;;;;4991761;28;20034;-67
2022/08/03 10:53:05;;;;;;;4.43;1.98;;;33.60;31.20;;;;;;4991839;28;20049;-67
2022/08/03 10:58:42;;;;;;;5.07;2.20;;;33.50;32.20;;;;;;4991464;28;20519;-67
2022/08/03 11:01:08;;;;;;;;;;;33.80;30.90;;;;;;4992874;28;20035;-67
2022/08/03 11:03:54;;;;;;;2.67;2.20;;;33.50;31.40;;;;;;4993513;28;19914;-72
2022/08/03 11:06:20;;;;;;;3.70;2.05;;;33.50;30.90;;;;;;4991873;28;20100;-72
2022/08/03 11:08:48;;;;;;;5.80;1.52;;;33.40;31.90;;;;;;4991255;28;20057;-71
2022/08/03 11:11:16;;;;;;;4.22;1.77;;;33.50;32.30;;;;;;4991932;28;20023;-72
2022/08/03 11:14:06;;;;;;;5.57;2.28;;;33.60;32.10;;;;;;4991585;28;20504;-72
2022/08/03 11:16:46;;;;;;;5.15;2.05;;;33.70;31.70;;;;;;4991136;28;20035;-71
2022/08/03 11:19:18;;;;;;;3.15;2.25;;;33.60;31.30;;;;;;4990807;28;20036;-71
2022/08/03 11:21:49;;;;;;;2.85;1.58;;;33.30;31.80;;;;;;4991271;28;20076;-72
2022/08/03 11:24:42;;;;;;;3.28;1.90;;;33.00;32.00;;;;;;4992281;28;20058;-71
2022/08/03 11:27:13;;;;;;;4.43;1.92;;;32.40;32.70;;;;;;4991639;28;20030;-69
2022/08/03 11:30:01;;;;;;;1.90;1.77;;;31.90;33.40;;;;;;4994555;28;20158;-72
2022/08/03 11:32:47;;;;;;;11.60;8.27;;;32.00;33.30;;;;;;4994025;28;20168;-70
2022/08/03 11:35:20;;;;;;;5.47;2.20;;;32.20;33.40;;;;;;4994695;28;20473;-72
2022/08/03 11:37:58;;;;;;;3.97;1.98;;;32.30;32.60;;;;;;4992065;28;20069;-72
2022/08/03 11:41:01;;;;;;;11.77;9.07;;;32.10;33.30;;;;;;4997503;28;20022;-71
2022/08/03 11:43:34;;;;;;;5.88;1.70;;;32.40;33.00;;;;;;5011304;28;20038;-72
2022/08/03 11:46:04;;;;;;;18.80;10.82;;;32.50;32.80;;;;;;5012035;28;20025;-73
2022/08/03 11:48:32;;;;;;;4.45;2.10;;;32.70;32.50;;;;;;5013063;28;20022;-73
2022/08/03 11:51:02;;;;;;;9.40;2.50;;;32.40;32.40;;;;;;5013601;28;20037;-73
2022/08/03 11:53:29;;;;;;;4.90;1.93;;;32.30;32.60;;;;;;5014326;28;20025;-72
2022/08/03 11:55:58;;;;;;;3.00;1.90;;;32.30;32.50;;;;;;5013874;28;20029;-74
2022/08/03 11:58:24;;;;;;;4.25;2.15;;;32.30;32.60;;;;;;5013186;28;20029;-74
2022/08/03 12:00:50;;;;;;;2.95;1.70;;;32.30;32.80;;;;;;5014353;28;20400;-74
2022/08/03 12:03:17;;;;;;;5.65;2.38;;;32.50;32.30;;;;;;5013751;28;20412;-74
2022/08/03 12:05:48;;;;;;;8.38;2.38;;;32.50;32.30;;;;;;5012725;28;20492;-72
2022/08/03 12:08:17;;;;;;;5.38;2.00;;;32.30;32.10;;;;;;5013147;28;20396;-71
2022/08/03 12:10:48;;;;;;;11.93;8.93;;;32.20;32.40;;;;;;5013853;28;20317;-72
2022/08/03 12:13:14;;;;;;;15.52;10.27;;;32.50;32.50;;;;;;5014185;28;20026;-75
2022/08/03 12:15:40;;;;;;;13.70;9.13;;;32.90;32.20;;;;;;5012585;28;20026;-73
2022/08/03 12:18:14;;;;;;;4.68;2.42;;;33.20;31.70;;;;;;5012843;28;20029;-73
2022/08/03 12:20:40;;;;;;;6.60;2.00;;;33.20;30.60;;;;;;5013976;28;20037;-73
2022/08/03 12:23:06;;;;;;;5.75;2.20;;;32.60;31.30;;;;;;5013535;28;20033;-73
2022/08/03 12:25:34;;;;;;;5.57;3.15;;;32.30;31.90;;;;;;5013612;28;20556;-72
2022/08/03 12:28:15;;;;;;;3.88;2.95;;;32.60;31.50;;;;;;5012892;28;20022;-71
2022/08/03 12:30:42;;;;;;;7.25;2.03;;;32.80;31.50;;;;;;5013172;28;20025;-68
2022/08/03 12:33:15;;;;;;;6.32;2.00;;;32.70;31.30;;;;;;5013325;28;20115;-67
2022/08/03 12:35:42;;;;;;;6.43;2.17;;;32.50;30.90;;;;;;5012884;28;20037;-69
2022/08/03 12:38:07;;;;;;;4.35;3.08;;;32.30;31.30;;;;;;5012730;28;20029;-71
2022/08/03 12:40:35;;;;;;;2.38;1.90;;;32.40;31.60;;;;;;5013328;28;20125;-74
2022/08/03 12:43:11;;;;;;;1.95;1.85;;;32.20;31.90;;;;;;5013102;28;20033;-70
2022/08/03 12:45:36;;;;;;;6.95;2.28;;;31.90;32.30;;;;;;5013044;28;20022;-71
2022/08/03 12:48:07;;;;;;;2.95;2.22;;;31.80;32.10;;;;;;5012570;28;20080;-72
2022/08/03 12:50:34;;;;;;;3.03;2.22;;;31.90;31.90;;;;;;5013347;28;20084;-72
2022/08/03 12:53:03;;;;;;;2.28;2.00;;;32.10;31.90;;;;;;5012845;28;20022;-70
2022/08/03 12:55:33;;;;;;;7.00;1.90;;;32.20;31.10;;;;;;5012869;28;20030;-73
2022/08/03 12:58:09;;;;;;;3.83;1.58;;;32.10;31.20;;;;;;5012140;28;20400;-72
2022/08/03 13:00:36;;;;;;;8.13;2.00;;;32.10;31.00;;;;;;5012886;28;20480;-73
2022/08/03 13:03:03;;;;;;;4.97;2.08;;;32.10;31.80;;;;;;5013004;28;20476;-70
2022/08/03 13:05:29;;;;;;;5.60;1.90;;;32.30;31.70;;;;;;5012821;28;20022;-72
2022/08/03 13:07:55;;;;;;;5.40;2.13;;;32.00;30.60;;;;;;5012655;28;20018;-72
2022/08/03 13:10:32;;;;;;;3.60;1.63;;;32.00;31.20;;;;;;5012708;28;20022;-72
2022/08/03 13:12:59;;;;;;;3.78;1.90;;;32.20;31.60;;;;;;5011311;28;20488;-68
2022/08/03 13:15:28;;;;;;;4.65;2.05;;;32.30;31.10;;;;;;5011208;28;20075;-68
2022/08/03 13:17:55;;;;;;;7.95;2.05;;;32.20;31.20;;;;;;5010014;28;20105;-68
2022/08/03 13:20:21;;;;;;;8.00;5.43;;;32.30;30.10;;;;;;5010859;28;20068;-68
2022/08/03 13:22:47;;;;;;;8.52;3.80;;;32.30;30.20;;;;;;5010514;28;20026;-67
2022/08/03 13:25:14;;;;;;;3.33;2.22;;;32.40;29.60;;;;;;5010269;28;20022;-67